createdAt,value
2022-10-16T00:02:03.388Z,6.93
2022-10-16T00:05:06.811Z,7.13
2022-10-16T00:08:10.159Z,7.18
2022-10-16T00:11:15.446Z,9.10
2022-10-16T00:14:17.661Z,7.88
2022-10-16T00:17:19.885Z,7.85
2022-10-16T00:20:22.681Z,8.55
2022-10-16T00:23:44.553Z,7.72
2022-10-16T00:26:46.836Z,7.47
2022-10-16T00:29:53.323Z,7.78
2022-10-16T00:32:55.738Z,6.78
2022-10-16T00:36:03.735Z,7.35
2022-10-16T00:39:06.522Z,6.78
2022-10-16T00:42:16.160Z,7.50
2022-10-16T00:45:18.701Z,6.45
2022-10-16T00:48:21.011Z,6.95
2022-10-16T00:51:28.707Z,6.68
2022-10-16T00:54:33.690Z,7.87
2022-10-16T00:57:37.089Z,6.13
2022-10-16T01:00:39.589Z,7.50
2022-10-16T01:03:41.795Z,6.18
2022-10-16T01:07:02.732Z,7.55
2022-10-16T01:10:09.570Z,5.60
2022-10-16T01:13:19.482Z,7.32
2022-10-16T01:16:33.681Z,7.13
2022-10-16T01:19:57.030Z,7.40
2022-10-16T01:23:37.289Z,6.50
2022-10-16T01:27:07.141Z,6.72
2022-10-16T01:30:27.351Z,6.35
2022-10-16T01:36:47.476Z,6.28
2022-10-16T01:39:52.413Z,6.80
2022-10-16T01:43:01.226Z,7.00
2022-10-16T01:46:04.258Z,6.40
2022-10-16T01:49:08.919Z,6.38
2022-10-16T01:52:17.520Z,6.00
2022-10-16T01:58:28.245Z,5.78
2022-10-16T02:01:34.744Z,6.72
2022-10-16T02:04:45.232Z,6.35
2022-10-16T02:07:48.289Z,5.80
2022-10-16T02:10:51.082Z,6.70
2022-10-16T02:14:04.108Z,5.93
2022-10-16T02:17:18.567Z,6.35
2022-10-16T02:20:26.303Z,6.93
2022-10-16T02:23:48.590Z,6.67
2022-10-16T02:26:59.392Z,6.35
2022-10-16T02:30:18.027Z,6.97
2022-10-16T02:33:24.500Z,5.95
2022-10-16T02:36:28.503Z,7.47
2022-10-16T02:39:32.166Z,6.60
2022-10-16T02:42:37.904Z,6.80
2022-10-16T02:45:40.062Z,6.25
2022-10-16T02:48:42.387Z,7.20
2022-10-16T02:51:45.549Z,7.78
2022-10-16T02:54:47.800Z,7.68
2022-10-16T02:57:50.908Z,6.95
2022-10-16T03:00:53.443Z,5.82
2022-10-16T03:03:55.634Z,6.93
2022-10-16T03:06:57.749Z,6.18
2022-10-16T03:10:02.472Z,6.82
2022-10-16T03:13:05.163Z,6.90
2022-10-16T03:16:07.292Z,7.30
2022-10-16T03:19:10.384Z,6.95
2022-10-16T03:22:12.611Z,6.63
2022-10-16T03:25:14.799Z,6.72
2022-10-16T03:28:16.956Z,8.18
2022-10-16T03:31:20.329Z,7.43
2022-10-16T03:34:23.358Z,6.38
2022-10-16T03:37:25.850Z,7.40
2022-10-16T03:40:29.311Z,7.05
2022-10-16T03:43:37.413Z,7.60
2022-10-16T03:46:40.492Z,7.32
2022-10-16T03:49:43.617Z,6.28
2022-10-16T03:52:46.854Z,7.45
2022-10-16T03:55:49.011Z,7.10
2022-10-16T03:58:51.858Z,7.55
2022-10-16T04:01:53.907Z,6.20
2022-10-16T04:04:56.043Z,7.93
2022-10-16T04:07:58.424Z,7.47
2022-10-16T04:11:00.576Z,6.60
2022-10-16T04:14:02.817Z,6.35
2022-10-16T04:17:04.948Z,6.57
2022-10-16T04:20:09.341Z,8.13
2022-10-16T04:23:11.607Z,6.60
2022-10-16T04:26:14.933Z,6.75
2022-10-16T04:29:17.665Z,7.07
2022-10-16T04:32:19.629Z,6.35
2022-10-16T04:35:22.847Z,7.35
2022-10-16T04:38:25.184Z,8.38
2022-10-16T04:41:27.568Z,11.32
2022-10-16T04:44:30.994Z,16.50
2022-10-16T04:47:33.764Z,20.27
2022-10-16T04:50:35.764Z,18.20
2022-10-16T04:53:41.160Z,14.00
2022-10-16T04:56:51.449Z,11.52
2022-10-16T04:59:53.651Z,10.43
2022-10-16T05:02:55.815Z,9.15
2022-10-16T05:05:58.023Z,9.25
2022-10-16T05:08:59.988Z,8.77
2022-10-16T05:12:03.061Z,8.23
2022-10-16T05:15:05.795Z,6.70
2022-10-16T05:18:07.786Z,6.88
2022-10-16T05:21:09.947Z,7.75
2022-10-16T05:24:13.160Z,7.97
2022-10-16T05:27:20.042Z,8.73
2022-10-16T05:30:22.282Z,6.60
2022-10-16T05:33:26.811Z,7.80
2022-10-16T05:36:28.903Z,7.85
2022-10-16T05:39:30.939Z,7.43
2022-10-16T05:42:33.124Z,7.47
2022-10-16T05:45:35.360Z,8.20
2022-10-16T05:48:37.393Z,11.10
2022-10-16T05:51:39.533Z,9.60
2022-10-16T05:54:41.564Z,10.43
2022-10-16T05:57:43.647Z,9.90
2022-10-16T06:00:45.733Z,58.92
2022-10-16T06:03:47.985Z,18.70
2022-10-16T06:06:49.996Z,14.45
2022-10-16T06:09:53.655Z,9.98
2022-10-16T06:12:55.642Z,10.02
2022-10-16T06:16:00.146Z,8.48
2022-10-16T06:19:07.588Z,7.25
2022-10-16T06:22:09.618Z,8.30
2022-10-16T06:25:11.775Z,7.57
2022-10-16T06:28:15.938Z,7.82
2022-10-16T06:31:18.756Z,6.30
2022-10-16T06:34:20.833Z,8.02
2022-10-16T06:37:23.547Z,8.30
2022-10-16T06:40:25.829Z,7.35
2022-10-16T06:43:31.121Z,8.68
2022-10-16T06:46:33.141Z,7.68
2022-10-16T06:49:35.214Z,7.10
2022-10-16T06:52:37.202Z,7.03
2022-10-16T06:55:39.495Z,7.57
2022-10-16T06:58:42.499Z,6.70
2022-10-16T07:01:44.554Z,8.20
2022-10-16T07:04:46.596Z,7.93
2022-10-16T07:07:48.668Z,7.78
2022-10-16T07:10:59.591Z,7.50
2022-10-16T07:14:01.810Z,7.75
2022-10-16T07:17:03.884Z,6.22
2022-10-16T07:20:06.774Z,6.65
2022-10-16T07:23:08.786Z,7.03
2022-10-16T07:26:11.812Z,6.35
2022-10-16T07:29:21.455Z,6.60
2022-10-16T07:32:23.665Z,6.85
2022-10-16T07:35:25.961Z,7.03
2022-10-16T07:38:28.118Z,7.50
2022-10-16T07:41:30.260Z,6.22
2022-10-16T07:44:32.777Z,6.15
2022-10-16T07:47:34.810Z,6.05
2022-10-16T07:50:36.889Z,6.10
2022-10-16T07:53:39.580Z,6.10
2022-10-16T07:56:43.862Z,5.65
2022-10-16T07:59:47.335Z,5.43
2022-10-16T08:02:49.415Z,5.32
2022-10-16T08:05:51.795Z,5.38
2022-10-16T08:08:54.103Z,6.18
2022-10-16T08:12:01.310Z,5.20
2022-10-16T08:15:04.679Z,5.57
2022-10-16T08:18:07.059Z,5.90
2022-10-16T08:21:18.595Z,5.97
2022-10-16T08:24:23.640Z,5.22
2022-10-16T08:27:25.775Z,5.10
2022-10-16T08:30:27.989Z,5.80
2022-10-16T08:33:31.494Z,5.45
2022-10-16T08:36:33.755Z,4.78
2022-10-16T08:39:35.802Z,3.40
2022-10-16T08:43:09.167Z,3.30
2022-10-16T08:46:29.920Z,3.90
2022-10-16T08:49:32.662Z,4.78
2022-10-16T08:52:40.168Z,3.42
2022-10-16T08:55:51.489Z,3.33
2022-10-16T08:58:58.056Z,3.70
2022-10-16T09:02:03.573Z,2.50
2022-10-16T09:05:20.822Z,2.30
2022-10-16T09:08:35.892Z,2.80
2022-10-16T09:11:49.698Z,2.45
2022-10-16T09:15:00.927Z,1.70
2022-10-16T09:18:11.285Z,2.65
2022-10-16T09:21:36.724Z,2.08
2022-10-16T09:24:38.817Z,1.92
2022-10-16T09:27:41.513Z,1.92
2022-10-16T09:30:44.090Z,1.80
2022-10-16T09:33:51.640Z,1.90
2022-10-16T09:36:53.701Z,1.90
2022-10-16T09:39:56.207Z,2.22
2022-10-16T09:43:04.809Z,2.13
2022-10-16T09:49:38.002Z,2.25
2022-10-16T09:52:40.048Z,1.63
2022-10-16T09:55:52.947Z,1.77
2022-10-16T09:59:02.544Z,1.92
2022-10-16T10:02:14.900Z,1.83
2022-10-16T10:05:23.856Z,2.00
2022-10-16T10:08:26.364Z,1.70
2022-10-16T10:11:58.831Z,2.22
2022-10-16T10:15:12.132Z,2.30
2022-10-16T10:18:25.008Z,3.00
2022-10-16T10:21:27.216Z,2.00
2022-10-16T10:24:29.235Z,1.70
2022-10-16T10:27:51.582Z,1.58
2022-10-16T10:31:21.423Z,1.50
2022-10-16T10:34:45.226Z,1.75
2022-10-16T10:38:07.908Z,1.80
2022-10-16T10:41:26.643Z,1.95
2022-10-16T10:45:03.518Z,1.83
2022-10-16T10:48:48.513Z,2.00
2022-10-16T10:52:12.849Z,1.60
2022-10-16T10:55:20.933Z,4.75
2022-10-16T10:58:31.025Z,1.70
2022-10-16T11:02:10.356Z,1.75
2022-10-16T11:05:35.052Z,1.90
2022-10-16T11:08:42.274Z,2.40
2022-10-16T11:11:54.335Z,2.10
2022-10-16T11:15:21.174Z,1.67
2022-10-16T11:18:31.300Z,2.08
2022-10-16T11:21:40.905Z,1.88
2022-10-16T11:24:45.590Z,1.23
2022-10-16T11:28:07.204Z,1.65
2022-10-16T11:31:27.139Z,1.55
2022-10-16T11:34:51.988Z,4.75
2022-10-16T11:37:57.758Z,1.77
2022-10-16T11:41:30.530Z,2.58
2022-10-16T11:44:48.279Z,1.33
2022-10-16T11:48:02.012Z,1.52
2022-10-16T11:51:17.330Z,1.45
2022-10-16T11:54:27.906Z,1.58
2022-10-16T11:57:35.146Z,1.38
2022-10-16T12:01:19.749Z,1.83
2022-10-16T12:04:40.889Z,1.48
2022-10-16T12:08:04.419Z,2.05
2022-10-16T12:11:22.186Z,2.10
2022-10-16T12:15:11.259Z,1.80
2022-10-16T12:18:03.403Z,1.67
2022-10-16T12:21:07.452Z,1.50
2022-10-16T12:24:33.575Z,2.28
2022-10-16T12:27:36.747Z,2.15
2022-10-16T12:30:38.931Z,1.67
2022-10-16T12:33:43.177Z,1.90
2022-10-16T12:36:45.302Z,1.20
2022-10-16T12:39:49.484Z,2.03
2022-10-16T12:42:51.792Z,1.88
2022-10-16T12:46:05.841Z,2.35
2022-10-16T12:49:25.652Z,1.50
2022-10-16T12:52:38.194Z,1.90
2022-10-16T12:56:15.170Z,2.33
2022-10-16T12:59:20.024Z,1.75
2022-10-16T13:02:40.334Z,1.90
2022-10-16T13:06:00.496Z,2.33
2022-10-16T13:09:33.395Z,1.25
2022-10-16T13:12:55.847Z,1.95
2022-10-16T13:16:36.595Z,1.90
2022-10-16T13:19:55.879Z,2.00
2022-10-16T13:23:32.995Z,1.38
2022-10-16T13:26:49.906Z,2.10
2022-10-16T13:30:03.103Z,1.67
2022-10-16T13:33:11.350Z,1.40
2022-10-16T13:36:25.116Z,2.15
2022-10-16T13:39:29.467Z,1.90
2022-10-16T13:42:31.687Z,1.80
2022-10-16T13:45:34.086Z,1.50
2022-10-16T13:48:36.332Z,2.08
2022-10-16T13:51:38.471Z,2.20
2022-10-16T13:54:40.551Z,2.03
2022-10-16T13:57:43.735Z,4.32
2022-10-16T14:01:27.270Z,2.38
2022-10-16T14:04:34.404Z,1.70
2022-10-16T14:07:36.876Z,2.50
2022-10-16T14:10:39.552Z,1.60
2022-10-16T14:13:46.603Z,1.60
2022-10-16T14:16:49.119Z,2.90
2022-10-16T14:19:57.780Z,1.48
2022-10-16T14:23:31.841Z,1.58
2022-10-16T14:26:46.813Z,1.60
2022-10-16T14:29:51.826Z,2.88
2022-10-16T14:33:02.467Z,2.00
2022-10-16T14:36:10.703Z,2.88
2022-10-16T14:39:24.149Z,2.55
2022-10-16T14:42:27.012Z,2.78
2022-10-16T14:45:32.175Z,3.00
2022-10-16T14:48:34.826Z,3.33
2022-10-16T14:51:46.009Z,3.10
2022-10-16T14:54:51.577Z,4.20
2022-10-16T14:57:56.933Z,3.63
2022-10-16T15:01:01.831Z,4.18
2022-10-16T15:04:04.330Z,3.03
2022-10-16T15:07:06.565Z,3.20
2022-10-16T15:10:08.975Z,3.58
2022-10-16T15:13:15.259Z,2.55
2022-10-16T15:16:18.023Z,3.05
2022-10-16T15:19:20.011Z,3.00
2022-10-16T15:22:24.524Z,3.08
2022-10-16T15:25:34.235Z,2.40
2022-10-16T15:28:36.934Z,4.13
2022-10-16T15:31:39.891Z,4.93
2022-10-16T15:34:41.972Z,4.00
2022-10-16T15:37:43.962Z,3.67
2022-10-16T15:40:47.779Z,3.25
2022-10-16T15:43:51.281Z,3.53
2022-10-16T15:46:56.213Z,3.63
2022-10-16T15:49:58.227Z,4.60
2022-10-16T15:53:00.305Z,4.82
2022-10-16T15:56:09.679Z,4.18
2022-10-16T15:59:13.477Z,5.43
2022-10-16T16:02:15.559Z,6.00
2022-10-16T16:05:17.695Z,6.38
2022-10-16T16:08:19.855Z,4.93
2022-10-16T16:11:23.470Z,5.50
2022-10-16T16:14:27.229Z,7.85
2022-10-16T16:29:01.362Z,7.72
2022-10-16T16:32:59.188Z,7.88
2022-10-16T16:36:10.317Z,6.28
2022-10-16T16:39:15.481Z,8.93
2022-10-16T16:42:18.476Z,9.85
2022-10-16T16:45:20.707Z,9.18
2022-10-16T16:48:23.332Z,8.15
2022-10-16T16:51:26.435Z,7.53
2022-10-16T16:54:28.723Z,9.05
2022-10-16T16:57:30.902Z,9.45
2022-10-16T17:00:33.076Z,8.80
2022-10-16T17:03:38.666Z,12.25
2022-10-16T17:06:41.466Z,11.82
2022-10-16T17:09:44.177Z,10.35
2022-10-16T17:12:46.353Z,9.63
2022-10-16T17:15:49.793Z,9.50
2022-10-16T17:18:53.745Z,9.43
2022-10-16T17:21:59.327Z,9.90
2022-10-16T17:25:05.387Z,9.27
2022-10-16T17:28:12.856Z,8.57
2022-10-16T17:31:18.190Z,8.90
2022-10-16T17:34:20.328Z,7.93
2022-10-16T17:37:22.780Z,8.68
2022-10-16T17:40:26.267Z,8.70
2022-10-16T17:43:29.385Z,7.30
2022-10-16T17:46:36.919Z,7.60
2022-10-16T17:49:42.366Z,8.63
2022-10-16T17:52:45.922Z,8.25
2022-10-16T17:55:48.403Z,8.95
2022-10-16T18:02:35.072Z,9.52
2022-10-16T18:05:38.723Z,8.88
2022-10-16T18:08:40.845Z,9.27
2022-10-16T18:11:42.867Z,11.80
2022-10-16T18:14:45.077Z,10.30
2022-10-16T18:17:48.086Z,11.45
2022-10-16T18:20:59.842Z,13.10
2022-10-16T18:24:02.092Z,13.63
2022-10-16T18:27:04.392Z,13.45
2022-10-16T18:30:07.054Z,15.32
2022-10-16T18:33:09.072Z,15.77
2022-10-16T18:36:12.159Z,15.25
2022-10-16T18:39:17.046Z,15.02
2022-10-16T18:42:20.410Z,14.10
2022-10-16T18:45:22.448Z,13.73
2022-10-16T18:48:32.560Z,13.57
2022-10-16T18:51:38.816Z,14.50
2022-10-16T18:54:42.916Z,13.52
2022-10-16T18:57:48.268Z,15.77
2022-10-16T19:01:07.604Z,17.17
2022-10-16T19:04:14.201Z,15.35
2022-10-16T19:07:28.958Z,15.73
2022-10-16T19:10:32.120Z,15.10
2022-10-16T19:13:45.881Z,16.73
2022-10-16T19:34:35.373Z,15.23
2022-10-16T19:41:10.444Z,16.25
2022-10-16T19:44:14.896Z,15.45
2022-10-16T19:47:19.626Z,14.07
2022-10-16T19:50:24.569Z,15.05
2022-10-16T19:53:28.692Z,14.20
2022-10-16T19:56:33.122Z,14.95
2022-10-16T19:59:35.711Z,13.25
2022-10-16T20:02:37.987Z,13.18
2022-10-16T20:05:40.116Z,13.57
2022-10-16T20:08:46.026Z,14.50
2022-10-16T20:11:48.257Z,13.55
2022-10-16T20:14:52.830Z,11.93
2022-10-16T20:17:54.920Z,15.25
2022-10-16T20:20:57.136Z,12.70
2022-10-16T20:24:06.912Z,12.30
2022-10-16T20:27:09.147Z,13.95
2022-10-16T20:30:13.351Z,15.23
2022-10-16T20:33:16.747Z,15.68
2022-10-16T20:36:20.853Z,13.63
2022-10-16T20:39:23.369Z,15.27
2022-10-16T20:42:30.682Z,14.77
2022-10-16T20:45:33.374Z,16.00
2022-10-16T20:48:36.929Z,14.82
2022-10-16T20:51:39.307Z,16.60
2022-10-16T20:54:46.125Z,16.15
2022-10-16T20:57:48.656Z,15.52
2022-10-16T21:00:50.785Z,14.40
2022-10-16T21:03:55.818Z,15.25
2022-10-16T21:06:58.916Z,15.13
2022-10-16T21:10:00.943Z,14.18
2022-10-16T21:13:04.525Z,14.80
2022-10-16T21:16:07.526Z,16.23
2022-10-16T21:19:09.844Z,16.25
2022-10-16T21:22:12.141Z,17.10
2022-10-16T21:25:14.317Z,14.52
2022-10-16T21:28:17.007Z,16.95
2022-10-16T21:31:20.662Z,14.88
2022-10-16T21:34:22.720Z,16.65
2022-10-16T21:37:25.094Z,16.08
2022-10-16T21:40:30.287Z,15.02
2022-10-16T21:43:33.241Z,14.98
2022-10-16T21:46:37.913Z,13.40
2022-10-16T21:49:40.007Z,13.23
2022-10-16T21:52:42.311Z,13.70
2022-10-16T21:55:46.080Z,12.20
2022-10-16T21:58:50.526Z,13.93
2022-10-16T22:01:55.654Z,13.55
2022-10-16T22:04:57.732Z,13.50
2022-10-16T22:07:59.749Z,13.73
2022-10-16T22:11:13.797Z,12.52
2022-10-16T22:14:18.614Z,12.68
2022-10-16T22:17:20.697Z,12.82
2022-10-16T22:20:22.762Z,12.00
2022-10-16T22:23:24.941Z,12.43
2022-10-16T22:26:27.622Z,13.13
2022-10-16T22:29:29.660Z,11.98
2022-10-16T22:32:33.631Z,12.40
2022-10-16T22:35:38.163Z,12.95
2022-10-16T22:38:41.301Z,11.77
2022-10-16T22:41:43.655Z,12.10
2022-10-16T22:44:45.684Z,11.57
2022-10-16T22:47:47.880Z,11.00
2022-10-16T22:50:50.180Z,11.45
2022-10-16T22:53:53.255Z,11.85
2022-10-16T22:56:55.420Z,12.13
2022-10-16T22:59:59.854Z,12.52
2022-10-16T23:03:02.030Z,11.55
2022-10-16T23:06:05.975Z,11.52
2022-10-16T23:09:08.049Z,12.40
2022-10-16T23:12:10.492Z,12.05
2022-10-16T23:15:12.733Z,11.35
2022-10-16T23:18:14.866Z,12.00
2022-10-16T23:21:19.921Z,12.50
2022-10-16T23:24:22.967Z,11.95
2022-10-16T23:27:27.872Z,12.73
2022-10-16T23:30:30.573Z,10.70
2022-10-16T23:33:34.422Z,11.40
2022-10-16T23:36:36.485Z,11.20
2022-10-16T23:39:38.577Z,10.85
2022-10-16T23:42:42.101Z,11.65
2022-10-16T23:45:44.450Z,11.15
2022-10-16T23:48:46.914Z,10.75
2022-10-16T23:51:49.137Z,10.98
2022-10-16T23:54:51.242Z,10.90
2022-10-16T23:57:53.576Z,11.05
